Terminal Aerodrome Forecast
Issued by NWS

Home | Current Version | Previous Version | Graphics & Text | Print | Product List | Glossary On
Versions: 1 2 3 4 5 6 7 8 9 10 11 12 13 14 15 16 17
000
FTUS43 KTOP 021700 RRA
TAFFOE
TAF
KFOE 021743Z 0218/0318 13012KT P6SM SCT060 BKN120
     FM030100 15013G18KT 6SM -DZ BR BKN020 OVC090
     FM030700 18016G26KT 4SM -DZRA BR OVC009
     FM031300 22016G26KT 6SM -DZ BR BKN020 OVC120=

USA.gov is the U.S. government's official web portal to all federal, state and local government web resources and services.